createdAt,value
2023-01-23T00:04:42.318Z,102279.31
2023-01-23T00:09:45.251Z,102276.69
2023-01-23T00:14:48.122Z,102273.16
2023-01-23T00:19:53.984Z,102259.91
2023-01-23T00:24:56.774Z,102267.03
2023-01-23T00:29:59.669Z,102269.63
2023-01-23T00:35:04.037Z,102266.06
2023-01-23T00:40:08.282Z,102261.69
2023-01-23T00:45:11.824Z,102279.41
2023-01-23T00:50:16.134Z,102276.72
2023-01-23T00:55:18.929Z,102278.50
2023-01-23T01:00:22.038Z,102282.88
2023-01-23T01:05:26.148Z,102281.97
2023-01-23T01:10:29.647Z,102300.56
2023-01-23T01:15:32.807Z,102301.47
2023-01-23T01:20:37.004Z,102297.06
2023-01-23T01:25:40.192Z,102304.97
2023-01-23T01:30:43.087Z,102304.97
2023-01-23T01:35:47.221Z,102320.06
2023-01-23T01:40:50.402Z,102327.09
2023-01-23T01:46:13.663Z,102321.78
2023-01-23T01:51:23.647Z,102325.25
2023-01-23T01:56:30.140Z,102322.56
2023-01-23T02:01:33.348Z,102321.66
2023-01-23T02:06:38.990Z,102334.06
2023-01-23T02:11:43.432Z,102340.25
2023-01-23T02:16:51.003Z,102349.88
2023-01-23T02:22:07.180Z,102341.94
2023-01-23T02:27:11.605Z,102354.28
2023-01-23T02:32:14.674Z,102355.19
2023-01-23T02:37:17.531Z,102354.31
2023-01-23T02:42:23.702Z,102367.59
2023-01-23T02:47:29.523Z,102364.03
2023-01-23T02:52:34.248Z,102357.00
2023-01-23T02:57:38.365Z,102359.66
2023-01-23T03:02:41.207Z,102358.72
2023-01-23T03:07:46.122Z,102363.13
2023-01-23T03:12:50.270Z,102357.88
2023-01-23T03:17:53.710Z,102360.53
2023-01-23T03:22:57.221Z,102357.78
2023-01-23T03:28:01.433Z,102364.84
2023-01-23T03:33:04.397Z,102378.03
2023-01-23T03:38:07.411Z,102360.41
2023-01-23T03:43:11.718Z,102362.19
2023-01-23T03:48:20.363Z,102352.53
2023-01-23T03:53:23.365Z,102347.28
2023-01-23T03:58:28.014Z,102327.88
2023-01-23T04:03:32.830Z,102330.53
2023-01-23T04:08:35.587Z,102323.47
2023-01-23T04:13:40.237Z,102323.53
2023-01-23T04:18:44.132Z,102336.78
2023-01-23T04:23:46.983Z,102336.78
2023-01-23T04:28:51.819Z,102343.84
2023-01-23T04:33:54.642Z,102346.53
2023-01-23T04:38:59.351Z,102335.97
2023-01-23T04:44:19.312Z,102350.13
2023-01-23T04:49:33.750Z,102366.84
2023-01-23T04:54:36.760Z,102369.47
2023-01-23T04:59:41.694Z,102373.84
2023-01-23T05:04:44.568Z,102368.47
2023-01-23T05:09:47.460Z,102369.28
2023-01-23T05:14:53.386Z,102376.34
2023-01-23T05:19:56.492Z,102379.00
2023-01-23T05:24:59.262Z,102379.81
2023-01-23T05:30:07.992Z,102366.56
2023-01-23T05:35:11.827Z,102372.75
2023-01-23T05:40:17.768Z,102390.44
2023-01-23T05:45:42.280Z,102392.22
2023-01-23T05:50:51.921Z,102391.31
2023-01-23T05:55:55.566Z,102394.84
2023-01-23T06:01:00.616Z,102407.25
2023-01-23T06:06:21.754Z,102410.78
2023-01-23T06:11:24.504Z,102416.94
2023-01-23T06:16:28.856Z,102424.03
2023-01-23T06:21:32.621Z,102428.53
2023-01-23T06:26:35.814Z,102427.53
2023-01-23T06:31:40.111Z,102432.84
2023-01-23T06:36:46.156Z,102442.56
2023-01-23T06:41:49.169Z,102461.13
2023-01-23T06:46:59.650Z,102466.41
2023-01-23T06:52:02.649Z,102476.97
2023-01-23T06:57:06.039Z,102485.00
2023-01-23T07:02:12.037Z,102490.25
2023-01-23T07:07:23.115Z,102491.09
2023-01-23T07:12:26.731Z,102491.97
2023-01-23T07:17:30.989Z,102489.34
2023-01-23T07:22:33.849Z,102499.13
2023-01-23T07:27:36.659Z,102507.91
2023-01-23T07:32:40.799Z,102512.25
2023-01-23T07:37:43.628Z,102515.75
2023-01-23T07:42:46.743Z,102508.69
2023-01-23T07:47:50.866Z,102521.91
2023-01-23T07:52:56.131Z,102517.09
2023-01-23T07:57:59.605Z,102516.69
2023-01-23T08:03:03.871Z,102529.66
2023-01-23T08:08:13.421Z,102532.06
2023-01-23T08:13:16.670Z,102532.81
2023-01-23T08:18:20.798Z,102534.56
2023-01-23T08:23:25.732Z,102548.75
2023-01-23T08:28:28.873Z,102534.81
2023-01-23T08:33:34.218Z,102548.38
2023-01-23T08:38:37.009Z,102544.06
2023-01-23T08:43:41.435Z,102560.03
2023-01-23T08:48:45.645Z,102562.69
2023-01-23T08:53:48.674Z,102555.69
2023-01-23T08:58:52.167Z,102564.66
2023-01-23T09:03:57.553Z,102561.00
2023-01-23T09:09:00.369Z,102569.81
2023-01-23T09:14:03.116Z,102568.03
2023-01-23T09:19:08.152Z,102576.75
2023-01-23T09:24:10.896Z,102590.75
2023-01-23T09:29:13.658Z,102580.13
2023-01-23T09:34:17.870Z,102581.88
2023-01-23T09:39:21.873Z,102586.13
2023-01-23T09:44:36.226Z,102587.09
2023-01-23T09:49:47.118Z,102590.53
2023-01-23T09:54:54.029Z,102596.56
2023-01-23T10:00:04.909Z,102591.22
2023-01-23T10:05:15.678Z,102596.50
2023-01-23T10:10:54.737Z,102594.53
2023-01-23T10:16:11.406Z,102582.91
2023-01-23T10:21:26.346Z,102601.72
2023-01-23T10:26:32.972Z,102606.06
2023-01-23T10:31:39.617Z,102593.59
2023-01-23T10:36:55.914Z,102605.13
2023-01-23T10:42:02.482Z,102601.47
2023-01-23T10:47:18.956Z,102598.81
2023-01-23T10:52:36.254Z,102598.03
2023-01-23T10:57:48.370Z,102600.59
2023-01-23T11:02:51.547Z,102584.50
2023-01-23T11:07:56.241Z,102585.38
2023-01-23T11:13:00.839Z,102579.03
2023-01-23T11:18:23.670Z,102573.63
2023-01-23T11:23:27.752Z,102572.81
2023-01-23T11:28:35.313Z,102579.06
2023-01-23T11:33:44.331Z,102571.16
2023-01-23T11:38:53.207Z,102572.94
2023-01-23T11:43:56.154Z,102569.44
2023-01-23T11:49:14.646Z,102573.09
2023-01-23T11:54:39.245Z,102564.97
2023-01-23T12:00:00.941Z,102550.75
2023-01-23T12:05:22.499Z,102554.28
2023-01-23T12:10:31.377Z,102560.28
2023-01-23T12:15:44.658Z,102558.47
2023-01-23T12:20:57.492Z,102551.34
2023-01-23T12:26:13.277Z,102556.66
2023-01-23T12:31:30.118Z,102558.63
2023-01-23T12:37:12.331Z,102561.28
2023-01-23T12:42:26.313Z,102554.13
2023-01-23T12:47:33.941Z,102549.44
2023-01-23T12:52:41.010Z,102553.16
2023-01-23T12:58:00.043Z,102567.28
2023-01-23T13:03:25.926Z,102563.72
2023-01-23T13:08:40.511Z,102571.56
2023-01-23T13:13:55.236Z,102582.38
2023-01-23T13:19:17.128Z,102582.38
2023-01-23T13:24:59.607Z,102589.47
2023-01-23T13:30:06.149Z,102586.81
2023-01-23T13:35:50.026Z,102587.84
2023-01-23T13:41:26.245Z,102593.16
2023-01-23T14:24:22.870Z,102622.78
2023-01-23T14:29:28.431Z,102621.09
2023-01-23T14:34:40.193Z,102618.47
2023-01-23T14:39:53.023Z,102612.34
2023-01-23T14:44:58.023Z,102618.53
2023-01-23T14:50:03.503Z,102626.53
2023-01-23T14:55:32.655Z,102623.09
2023-01-23T15:00:36.695Z,102625.84
2023-01-23T15:05:41.701Z,102624.19
2023-01-23T15:10:47.466Z,102626.84
2023-01-23T15:15:56.659Z,102628.63
2023-01-23T15:21:02.937Z,102619.94
2023-01-23T15:26:23.723Z,102609.47
2023-01-23T15:31:30.679Z,102609.53
2023-01-23T15:36:34.971Z,102610.44
2023-01-23T15:41:45.661Z,102612.16
2023-01-23T15:46:48.799Z,102605.22
2023-01-23T15:51:53.333Z,102608.78
2023-01-23T15:57:06.665Z,102617.63
2023-01-23T16:02:29.713Z,102612.34
2023-01-23T16:07:37.583Z,102612.31
2023-01-23T16:12:40.359Z,102610.59
2023-01-23T16:17:43.173Z,102608.06
2023-01-23T16:22:50.064Z,102611.63
2023-01-23T16:27:52.867Z,102615.19
2023-01-23T16:32:57.186Z,102610.75
2023-01-23T16:38:01.390Z,102606.34
2023-01-23T16:43:04.160Z,102612.47
2023-01-23T16:48:09.123Z,102608.03
2023-01-23T16:53:23.141Z,102605.41
2023-01-23T16:58:28.944Z,102608.03
2023-01-23T17:03:36.175Z,102618.66
2023-01-23T17:08:40.366Z,102610.69
2023-01-23T17:13:43.993Z,102617.75
2023-01-23T17:18:46.844Z,102618.56
2023-01-23T17:23:50.964Z,102623.03
2023-01-23T17:28:53.837Z,102609.81
2023-01-23T17:33:57.059Z,102615.16
2023-01-23T17:39:01.427Z,102627.56
2023-01-23T17:44:04.345Z,102615.19
2023-01-23T17:49:30.192Z,102628.56
2023-01-23T17:54:34.555Z,102614.41
2023-01-23T17:59:37.351Z,102617.91
2023-01-23T18:04:44.066Z,102620.53
2023-01-23T18:09:48.212Z,102624.06
2023-01-23T18:14:57.320Z,102636.47
2023-01-23T18:20:00.652Z,102633.84
2023-01-23T18:25:06.083Z,102634.72
2023-01-23T18:30:22.176Z,102632.09
2023-01-23T18:35:33.797Z,102635.66
2023-01-23T18:40:49.239Z,102649.78
2023-01-23T18:45:53.924Z,102643.53
2023-01-23T18:51:09.597Z,102642.59
2023-01-23T18:56:23.547Z,102641.78
2023-01-23T19:01:36.095Z,102643.53
2023-01-23T19:06:41.227Z,102639.16
2023-01-23T19:11:57.338Z,102650.69
2023-01-23T19:17:08.789Z,102656.00
2023-01-23T19:22:13.547Z,102650.75
2023-01-23T19:27:22.335Z,102658.72
2023-01-23T19:32:25.872Z,102665.84
2023-01-23T19:37:28.702Z,102678.19
2023-01-23T19:42:48.884Z,102684.38
2023-01-23T19:47:54.352Z,102688.75
2023-01-23T19:52:58.596Z,102695.91
2023-01-23T19:58:02.772Z,102701.22
2023-01-23T20:03:05.991Z,102695.91
2023-01-23T20:08:09.924Z,102697.69
2023-01-23T20:13:15.156Z,102711.88
2023-01-23T20:18:18.117Z,102709.16
2023-01-23T20:23:20.926Z,102710.00
2023-01-23T20:28:25.066Z,102710.84
2023-01-23T20:33:27.826Z,102709.06
2023-01-23T20:38:30.909Z,102706.38
2023-01-23T20:43:35.394Z,102703.75
2023-01-23T20:48:39.787Z,102712.56
2023-01-23T20:53:43.182Z,102711.72
2023-01-23T20:59:06.391Z,102706.38
2023-01-23T21:04:09.186Z,102701.09
2023-01-23T21:09:11.975Z,102696.72
2023-01-23T21:14:16.489Z,102694.94
2023-01-23T21:19:19.393Z,102701.09
2023-01-23T21:24:22.326Z,102708.16
2023-01-23T21:29:26.544Z,102709.03
2023-01-23T21:34:29.411Z,102701.13
2023-01-23T21:39:32.180Z,102700.25
2023-01-23T21:44:36.314Z,102702.00
2023-01-23T21:49:39.084Z,102696.72
2023-01-23T21:54:43.138Z,102695.81
2023-01-23T22:00:07.314Z,102692.25
2023-01-23T22:05:16.094Z,102697.56
2023-01-23T22:10:19.057Z,102699.31
2023-01-23T22:15:23.679Z,102703.72
2023-01-23T22:20:26.797Z,102704.59
2023-01-23T22:25:29.581Z,102701.91
2023-01-23T22:30:33.677Z,102703.66
2023-01-23T22:35:38.806Z,102701.03
2023-01-23T22:40:42.343Z,102694.00
2023-01-23T22:45:46.397Z,102686.06
2023-01-23T22:50:49.161Z,102693.13
2023-01-23T22:55:51.902Z,102698.44
2023-01-23T23:00:56.112Z,102696.63
2023-01-23T23:05:59.783Z,102703.72
2023-01-23T23:11:03.419Z,102702.84
2023-01-23T23:16:09.245Z,102702.84
2023-01-23T23:21:13.631Z,102717.94
2023-01-23T23:26:16.817Z,102716.13
2023-01-23T23:31:21.048Z,102710.84
2023-01-23T23:36:23.946Z,102720.59
2023-01-23T23:41:26.786Z,102724.03
2023-01-23T23:46:30.903Z,102725.84
2023-01-23T23:51:33.640Z,102710.81
2023-01-23T23:56:36.359Z,102723.19
